Time;durP1;ratioP1;P1;durP2;ratioP2;P2;SDS_P1;SDS_P2;PMS_P1;PMS_P2;Temp;Humidity;BMP_temperature;BMP_pressure;BME280_temperature;BME280_humidity;BME280_pressure;Samples;Min_cycle;Max_cycle;Signal;HPM_P1;HPM_P2
2022/03/16 00:02:27;;;;;;;62.30;30.73;;;;;;;6.37;92.01;101231.07;3752633;78;98627;-83
2022/03/16 00:07:28;;;;;;;54.53;29.30;;;;;;;6.26;92.40;101229.84;3725912;77;98875;-82
2022/03/16 00:12:29;;;;;;;62.37;32.07;;;;;;;6.15;92.92;101233.26;3731499;78;99215;-81
2022/03/16 00:17:30;;;;;;;62.93;31.83;;;;;;;6.04;93.29;101231.46;3731578;77;98956;-82
2022/03/16 00:22:31;;;;;;;60.13;29.03;;;;;;;5.95;93.67;101230.67;3744495;78;98952;-81
2022/03/16 00:27:32;;;;;;;65.87;30.02;;;;;;;5.84;94.02;101228.64;3744429;78;98453;-81
2022/03/16 00:32:33;;;;;;;63.00;31.30;;;;;;;5.75;94.40;101225.91;3742011;78;99107;-81
2022/03/16 00:37:35;;;;;;;59.83;31.25;;;;;;;5.66;95.20;101218.84;3758757;77;98847;-81
2022/03/16 00:42:35;;;;;;;64.23;33.87;;;;;;;5.56;95.81;101211.80;3754395;78;98782;-81
2022/03/16 00:47:37;;;;;;;63.27;31.30;;;;;;;5.49;96.38;101212.86;3696993;79;98933;-81
2022/03/16 00:52:37;;;;;;;69.67;34.85;;;;;;;5.42;96.49;101212.56;3704825;78;98895;-81
2022/03/16 00:57:38;;;;;;;61.93;31.23;;;;;;;5.34;97.05;101219.40;3699286;79;98933;-82
2022/03/16 01:02:39;;;;;;;62.20;31.83;;;;;;;5.30;97.35;101222.53;3697634;79;98721;-82
2022/03/16 01:07:40;;;;;;;64.43;33.37;;;;;;;5.25;98.02;101222.69;3693401;78;98756;-82
2022/03/16 01:12:41;;;;;;;69.53;34.00;;;;;;;5.20;98.30;101216.03;3705637;78;99262;-83
2022/03/16 01:17:42;;;;;;;66.87;33.30;;;;;;;5.17;98.93;101224.84;3692970;77;98972;-82
2022/03/16 01:22:43;;;;;;;74.92;35.10;;;;;;;5.14;99.29;101221.41;3702847;79;98900;-83
2022/03/16 01:27:44;;;;;;;74.07;36.87;;;;;;;5.10;99.68;101225.89;3694768;78;98694;-82
2022/03/16 01:32:45;;;;;;;71.33;33.90;;;;;;;5.07;99.88;101232.80;3694081;78;98666;-83
2022/03/16 01:37:46;;;;;;;69.60;33.67;;;;;;;5.05;100.00;101240.51;3681691;78;98689;-83
2022/03/16 01:42:47;;;;;;;71.57;35.40;;;;;;;5.03;100.00;101235.12;3696416;79;99067;-82
2022/03/16 01:47:48;;;;;;;68.80;35.75;;;;;;;4.98;100.00;101239.38;3721069;78;98966;-83
2022/03/16 01:52:49;;;;;;;67.27;34.17;;;;;;;4.94;100.00;101246.04;3689783;79;99534;-83
2022/03/16 01:57:50;;;;;;;74.13;36.63;;;;;;;4.92;100.00;101244.17;3725127;78;98758;-82
2022/03/16 02:02:51;;;;;;;79.40;34.88;;;;;;;4.90;100.00;101245.61;3745450;77;98783;-83
2022/03/16 02:07:52;;;;;;;72.30;37.70;;;;;;;4.87;100.00;101246.27;3724197;77;98758;-83
2022/03/16 02:12:53;;;;;;;79.73;38.77;;;;;;;4.85;100.00;101249.30;3764995;77;98971;-83
2022/03/16 02:17:57;;;;;;;72.80;37.07;;;;;;;4.84;100.00;101253.16;3697456;79;98969;-83
2022/03/16 02:23:05;;;;;;;84.15;38.00;;;;;;;4.83;100.00;101262.47;3734266;77;99007;-83
2022/03/16 02:28:06;;;;;;;80.67;38.87;;;;;;;4.80;100.00;101262.30;3781388;77;98656;-83
2022/03/16 02:33:07;;;;;;;79.97;38.98;;;;;;;4.77;100.00;101270.56;3767945;77;98858;-82
2022/03/16 02:38:08;;;;;;;80.80;38.87;;;;;;;4.77;100.00;101275.20;3749953;77;98862;-83
2022/03/16 02:43:09;;;;;;;80.27;38.77;;;;;;;4.76;100.00;101281.78;3807337;77;98947;-82
2022/03/16 02:48:11;;;;;;;85.70;39.45;;;;;;;4.76;100.00;101277.69;3806187;75;99027;-82
2022/03/16 02:53:12;;;;;;;85.57;39.67;;;;;;;4.76;100.00;101280.41;3869895;75;98915;-83
2022/03/16 02:58:15;;;;;;;80.77;38.90;;;;;;;4.76;100.00;101284.51;3870513;75;98805;-83
2022/03/16 03:03:17;;;;;;;77.82;38.10;;;;;;;4.75;100.00;101285.63;3881917;75;99126;-83
2022/03/16 03:08:18;;;;;;;84.30;38.67;;;;;;;4.74;100.00;101286.18;3820595;75;98891;-83
2022/03/16 03:13:19;;;;;;;78.60;38.60;;;;;;;4.72;100.00;101296.61;3807058;77;99008;-83
2022/03/16 03:18:19;;;;;;;79.63;39.27;;;;;;;4.70;100.00;101294.74;3763362;77;99339;-83
2022/03/16 03:23:20;;;;;;;77.10;40.03;;;;;;;4.66;100.00;101299.25;3760585;78;99046;-83
2022/03/16 03:28:22;;;;;;;78.40;37.97;;;;;;;4.66;100.00;101299.80;3752839;76;103099;-82
2022/03/16 03:33:23;;;;;;;72.63;37.40;;;;;;;4.66;100.00;101310.16;3744699;78;34786;-83
2022/03/16 03:38:24;;;;;;;75.67;37.97;;;;;;;4.64;100.00;101312.95;3750486;76;98955;-83
2022/03/16 03:43:25;;;;;;;78.40;36.97;;;;;;;4.62;100.00;101315.17;3745195;78;99055;-82
2022/03/16 03:48:26;;;;;;;77.67;38.57;;;;;;;4.57;100.00;101313.95;3729071;78;99111;-82
2022/03/16 03:53:27;;;;;;;78.67;38.90;;;;;;;4.57;100.00;101322.13;3678595;79;99369;-83
2022/03/16 03:58:28;;;;;;;78.27;38.07;;;;;;;4.53;100.00;101322.53;3707036;77;99081;-82
2022/03/16 04:03:29;;;;;;;78.53;37.70;;;;;;;4.48;100.00;101330.27;3705755;79;35331;-83
2022/03/16 04:08:30;;;;;;;77.55;35.78;;;;;;;4.46;100.00;101323.52;3711184;77;98837;-83
2022/03/16 04:13:31;;;;;;;82.97;39.70;;;;;;;4.41;100.00;101327.20;3700805;79;98940;-82
2022/03/16 04:18:32;;;;;;;81.15;38.98;;;;;;;4.37;100.00;101334.97;3687182;78;99356;-83
2022/03/16 04:23:33;;;;;;;76.90;39.57;;;;;;;4.34;100.00;101341.03;3687722;78;98979;-83
2022/03/16 04:28:35;;;;;;;80.03;38.33;;;;;;;4.29;100.00;101356.97;3697774;78;100053;-83
2022/03/16 04:33:37;;;;;;;80.60;38.60;;;;;;;4.24;100.00;101361.73;3719883;79;32703;-83
2022/03/16 04:38:38;;;;;;;80.15;37.45;;;;;;;4.18;100.00;101356.98;3688284;77;98835;-82
2022/03/16 04:43:39;;;;;;;76.17;39.43;;;;;;;4.14;100.00;101363.38;3709644;79;99181;-83
2022/03/16 04:48:40;;;;;;;80.70;38.43;;;;;;;4.11;100.00;101373.52;3746430;77;98989;-81
2022/03/16 04:53:41;;;;;;;79.80;38.43;;;;;;;4.06;100.00;101385.36;3766869;77;99498;-83
2022/03/16 04:58:42;;;;;;;78.37;38.37;;;;;;;4.05;100.00;101397.92;3746292;77;99108;-83
2022/03/16 05:03:47;;;;;;;82.17;40.03;;;;;;;4.06;100.00;101405.79;3758146;78;32461;-83
2022/03/16 05:08:50;;;;;;;79.75;38.78;;;;;;;4.10;100.00;101416.29;3729607;78;99382;-83
2022/03/16 05:13:51;;;;;;;82.80;40.52;;;;;;;4.16;100.00;101425.16;3727321;78;98817;-82
2022/03/16 05:18:52;;;;;;;83.40;39.40;;;;;;;4.23;100.00;101429.60;3743301;78;99229;-83
2022/03/16 05:23:53;;;;;;;74.33;36.57;;;;;;;4.29;100.00;101439.26;3728496;78;99345;-83
2022/03/16 05:28:55;;;;;;;73.73;36.83;;;;;;;4.37;100.00;101437.16;3743856;76;99478;-83
2022/03/16 05:33:56;;;;;;;77.60;38.95;;;;;;;4.44;100.00;101448.42;3807231;77;34797;-83
2022/03/16 05:38:57;;;;;;;81.10;37.33;;;;;;;4.50;100.00;101444.45;3811089;76;99236;-83
2022/03/16 05:43:58;;;;;;;79.13;37.10;;;;;;;4.53;100.00;101439.17;3791862;77;99198;-83
2022/03/16 05:48:59;;;;;;;78.50;36.57;;;;;;;4.60;100.00;101444.19;3810569;77;99131;-83
2022/03/16 05:54:00;;;;;;;77.10;37.30;;;;;;;4.69;100.00;101460.05;3817388;77;99570;-83
2022/03/16 05:59:01;;;;;;;72.45;36.70;;;;;;;4.74;100.00;101468.88;3783535;75;99075;-82
2022/03/16 06:04:03;;;;;;;76.80;37.83;;;;;;;4.82;100.00;101483.69;3815687;77;32513;-82
2022/03/16 06:09:05;;;;;;;73.80;37.27;;;;;;;4.88;100.00;101485.16;3804007;76;99362;-83
2022/03/16 06:14:06;;;;;;;74.40;36.30;;;;;;;4.93;100.00;101488.57;3820488;77;98876;-82
2022/03/16 06:19:07;;;;;;;72.53;36.28;;;;;;;4.98;100.00;101491.16;3789077;77;99020;-82
2022/03/16 06:24:08;;;;;;;77.23;37.03;;;;;;;5.03;100.00;101506.58;3797089;76;99422;-84
2022/03/16 06:29:09;;;;;;;76.67;37.60;;;;;;;5.07;100.00;101512.45;3795314;77;99053;-83
2022/03/16 06:34:10;;;;;;;75.77;39.00;;;;;;;5.13;100.00;101509.83;3805129;77;32463;-84
2022/03/16 06:39:11;;;;;;;74.13;37.90;;;;;;;5.19;100.00;101516.75;3793764;75;99040;-83
2022/03/16 06:44:12;;;;;;;73.60;37.93;;;;;;;5.27;100.00;101522.83;3811364;77;98828;-84
2022/03/16 06:49:13;;;;;;;81.67;40.55;;;;;;;5.33;100.00;101528.93;3808705;76;98933;-84
2022/03/16 06:54:14;;;;;;;75.37;38.70;;;;;;;5.40;100.00;101534.19;3744221;78;99537;-84
2022/03/16 06:59:15;;;;;;;71.07;37.73;;;;;;;5.51;100.00;101545.06;3736898;78;99073;-82
2022/03/16 07:04:16;;;;;;;77.00;38.73;;;;;;;5.61;100.00;101550.24;3749308;78;25889;-82
2022/03/16 07:09:17;;;;;;;78.17;38.83;;;;;;;5.69;100.00;101563.14;3751042;77;98840;-84
2022/03/16 07:14:31;;;;;;;75.03;39.53;;;;;;;5.78;100.00;101568.05;3717452;78;98048;-84
2022/03/16 07:19:31;;;;;;;72.95;38.58;;;;;;;5.84;100.00;101575.00;3711199;76;99314;-82
2022/03/16 07:24:32;;;;;;;74.53;41.00;;;;;;;5.90;100.00;101576.45;3724831;77;98962;-82
2022/03/16 07:29:33;;;;;;;76.93;40.87;;;;;;;5.97;100.00;101579.55;3723797;78;99073;-82
2022/03/16 07:34:34;;;;;;;78.27;41.87;;;;;;;6.06;100.00;101584.45;3724906;78;99037;-82
2022/03/16 07:39:36;;;;;;;77.43;41.37;;;;;;;6.16;100.00;101593.72;3734848;78;98718;-83
2022/03/16 07:44:37;;;;;;;77.47;40.10;;;;;;;6.23;100.00;101590.52;3724628;78;98738;-83
2022/03/16 07:49:38;;;;;;;71.43;39.37;;;;;;;6.32;100.00;101596.81;3711024;78;98839;-83
2022/03/16 07:54:39;;;;;;;80.37;43.97;;;;;;;6.39;100.00;101602.60;3707453;79;99346;-81
2022/03/16 07:59:40;;;;;;;76.00;42.33;;;;;;;6.45;100.00;101614.98;3686490;78;98947;-80
2022/03/16 08:04:41;;;;;;;80.07;42.10;;;;;;;6.55;100.00;101626.98;3679454;78;99073;-79
2022/03/16 08:09:42;;;;;;;72.47;41.03;;;;;;;6.64;100.00;101623.13;3717306;77;98775;-80
2022/03/16 08:14:43;;;;;;;71.60;41.53;;;;;;;6.75;100.00;101628.52;3708908;78;98785;-80
2022/03/16 08:19:45;;;;;;;71.67;41.18;;;;;;;6.90;100.00;101636.23;3690339;77;98831;-79
2022/03/16 08:24:53;;;;;;;73.67;41.13;;;;;;;7.06;100.00;101648.85;3670024;78;98952;-80
2022/03/16 08:29:54;;;;;;;69.97;39.53;;;;;;;7.20;100.00;101645.38;3690391;78;99095;-80
2022/03/16 08:34:55;;;;;;;71.77;40.83;;;;;;;7.33;100.00;101657.52;3709301;79;99047;-80
2022/03/16 08:39:57;;;;;;;72.03;38.70;;;;;;;7.43;100.00;101651.70;3697024;77;98617;-81
2022/03/16 08:44:57;;;;;;;72.13;39.77;;;;;;;7.52;100.00;101653.83;3699778;78;98932;-80
2022/03/16 08:49:58;;;;;;;66.80;38.67;;;;;;;7.64;100.00;101660.02;3724992;77;98840;-80
2022/03/16 08:55:00;;;;;;;74.07;39.73;;;;;;;7.76;100.00;101659.58;3748707;77;99455;-81
2022/03/16 09:00:01;;;;;;;68.07;39.30;;;;;;;7.93;100.00;101658.13;3741006;76;99040;-81
2022/03/16 09:05:02;;;;;;;67.27;38.50;;;;;;;8.10;100.00;101666.27;3797635;76;98947;-81
2022/03/16 09:10:05;;;;;;;70.47;39.53;;;;;;;8.23;99.57;101663.87;3803365;76;98810;-82
2022/03/16 09:15:08;;;;;;;67.60;39.55;;;;;;;8.62;98.47;101666.79;3813333;76;98938;-81
2022/03/16 09:20:09;;;;;;;61.97;38.83;;;;;;;8.62;98.47;101666.79;3807197;76;98950;-80
2022/03/16 09:25:10;;;;;;;63.10;38.23;;;;;;;8.87;97.56;101670.70;3769910;77;99226;-81
2022/03/16 09:30:11;;;;;;;64.30;36.70;;;;;;;9.22;97.43;101676.11;3703777;78;98729;-80
2022/03/16 09:35:12;;;;;;;65.77;39.07;;;;;;;9.53;95.94;101674.27;3762982;77;99266;-82
2022/03/16 09:40:13;;;;;;;65.87;40.30;;;;;;;9.73;94.80;101676.16;3734833;77;99045;-81
2022/03/16 09:45:21;;;;;;;64.73;40.00;;;;;;;10.30;96.08;101676.92;3719407;78;98629;-80
2022/03/16 09:50:22;;;;;;;62.27;38.13;;;;;;;10.85;93.95;101686.11;3737581;78;99344;-80
2022/03/16 09:55:23;;;;;;;59.73;36.47;;;;;;;11.80;94.55;101680.55;3719731;78;99248;-82
2022/03/16 10:00:24;;;;;;;52.50;35.37;;;;;;;12.74;92.16;101680.66;3729576;77;99510;-81
2022/03/16 10:05:27;;;;;;;52.83;34.73;;;;;;;13.15;87.84;101680.02;3719141;77;99040;-81
2022/03/16 10:16:09;;;;;;;51.55;32.98;;;;;;;14.18;82.93;101685.69;3721634;78;26740;-81
2022/03/16 10:21:10;;;;;;;46.30;31.20;;;;;;;14.71;77.38;101687.34;3711990;78;98990;-81
2022/03/16 10:26:17;;;;;;;47.07;33.30;;;;;;;15.32;76.78;101683.59;3722531;78;99595;-81
2022/03/16 10:31:19;;;;;;;44.85;30.72;;;;;;;15.32;73.08;101687.14;3713342;78;99187;-82
2022/03/16 10:36:30;;;;;;;48.63;31.17;;;;;;;16.00;73.29;101690.86;3730098;78;99145;-81
2022/03/16 10:46:52;;;;;;;49.10;33.43;;;;;;;15.71;66.55;101695.36;3727634;77;99097;-80
2022/03/16 10:52:07;;;;;;;38.78;28.67;;;;;;;16.13;68.56;101686.02;3734147;78;25856;-80
2022/03/16 10:57:13;;;;;;;40.00;27.48;;;;;;;16.86;67.43;101688.57;3703549;78;98995;-81
2022/03/16 11:02:14;;;;;;;;;;;;;;;17.23;63.17;101679.38;3728884;77;98942;-80
2022/03/16 11:07:16;;;;;;;36.38;26.40;;;;;;;16.95;55.48;101678.48;3742561;77;85309;-80
2022/03/16 11:17:40;;;;;;;30.88;22.42;;;;;;;17.00;56.83;101681.67;3722436;77;99210;-80
2022/03/16 11:28:45;;;;;;;33.15;23.00;;;;;;;16.36;48.73;101697.72;3731987;78;99602;-80
2022/03/16 11:33:55;;;;;;;29.23;21.35;;;;;;;16.45;52.61;101706.55;3697758;78;25792;-81
2022/03/16 11:38:58;;;;;;;31.52;22.70;;;;;;;16.67;49.33;101704.73;3721933;77;99655;-82
2022/03/16 11:44:25;;;;;;;38.90;25.50;;;;;;;16.55;49.80;101705.84;3729683;78;98972;-80
2022/03/16 11:49:30;;;;;;;32.83;22.70;;;;;;;16.09;48.98;101702.45;3730214;77;99238;-80
2022/03/16 11:54:46;;;;;;;35.63;25.27;;;;;;;15.64;48.18;101698.05;3726842;77;99214;-81
2022/03/16 11:59:47;;;;;;;31.85;23.50;;;;;;;15.73;49.30;101699.13;3714015;77;99242;-81
2022/03/16 12:04:50;;;;;;;36.07;24.00;;;;;;;16.25;52.14;101685.72;3725341;78;99263;-81
2022/03/16 12:10:01;;;;;;;36.83;24.63;;;;;;;16.71;51.15;101682.72;3722888;78;99443;-81
2022/03/16 12:15:17;;;;;;;34.78;23.55;;;;;;;16.41;49.45;101693.83;3732247;78;99053;-82
2022/03/16 12:20:31;;;;;;;31.70;23.27;;;;;;;15.86;50.56;101698.47;3725399;78;98946;-81
2022/03/16 12:25:34;;;;;;;31.70;24.23;;;;;;;15.94;50.45;101692.39;3730193;78;99174;-82
2022/03/16 12:30:47;;;;;;;32.23;22.62;;;;;;;15.62;49.44;101700.41;3733983;77;99683;-81
2022/03/16 12:36:15;;;;;;;30.82;21.60;;;;;;;15.21;50.70;101693.75;3729284;78;99192;-82
2022/03/16 12:47:06;;;;;;;34.67;21.13;;;;;;;15.29;50.85;101687.10;3738345;77;99160;-81
2022/03/16 12:52:07;;;;;;;31.95;21.50;;;;;;;15.52;50.65;101689.17;3741087;78;26241;-82
2022/03/16 12:57:16;;;;;;;32.50;22.97;;;;;;;15.40;49.47;101686.09;3761643;77;99330;-83
2022/03/16 13:02:23;;;;;;;28.75;20.77;;;;;;;15.17;49.59;101696.48;3760445;77;99011;-81
2022/03/16 13:07:26;;;;;;;30.80;21.02;;;;;;;14.76;49.85;101701.66;3756752;76;99153;-81
2022/03/16 13:12:27;;;;;;;28.80;19.92;;;;;;;14.49;49.41;101708.37;3753609;78;99799;-80
2022/03/16 13:17:39;;;;;;;27.13;20.00;;;;;;;14.39;50.68;101699.91;3755890;78;99227;-81
2022/03/16 13:22:40;;;;;;;32.70;22.95;;;;;;;14.45;50.37;101701.97;3735682;78;99240;-80
2022/03/16 13:27:41;;;;;;;33.03;22.07;;;;;;;14.61;49.69;101705.39;3763138;77;98740;-82
2022/03/16 13:32:44;;;;;;;31.63;21.47;;;;;;;14.65;48.71;101707.63;3751948;78;99065;-82
2022/03/16 13:37:48;;;;;;;28.80;19.87;;;;;;;14.53;49.36;101721.70;3769679;76;98980;-82
2022/03/16 13:43:06;;;;;;;29.87;19.77;;;;;;;14.17;47.89;101720.88;3761673;78;99114;-80
2022/03/16 13:48:27;;;;;;;28.45;20.02;;;;;;;13.83;49.19;101713.55;3781208;75;99212;-80
2022/03/16 13:53:40;;;;;;;30.80;20.20;;;;;;;13.68;49.88;101716.44;3776217;76;99163;-79
2022/03/16 13:58:41;;;;;;;33.95;20.90;;;;;;;13.73;50.19;101708.62;3753763;76;99517;-79
2022/03/16 14:03:42;;;;;;;30.95;21.07;;;;;;;13.77;50.22;101711.45;3758952;78;25926;-80
2022/03/16 14:08:45;;;;;;;29.00;21.00;;;;;;;13.88;49.40;101728.47;3744912;78;99376;-81
2022/03/16 14:13:46;;;;;;;33.33;22.35;;;;;;;13.78;49.75;101723.54;3755931;78;99329;-80
2022/03/16 14:18:47;;;;;;;32.13;22.77;;;;;;;13.56;50.47;101727.64;3733201;77;99536;-81
2022/03/16 14:23:48;;;;;;;38.43;25.33;;;;;;;13.38;50.42;101730.07;3758375;77;99169;-80
2022/03/16 14:28:50;;;;;;;39.50;25.67;;;;;;;13.19;51.59;101727.29;3730228;77;99522;-79
2022/03/16 14:33:51;;;;;;;33.17;24.20;;;;;;;13.15;53.53;101731.97;3756045;77;32867;-81
2022/03/16 14:38:53;;;;;;;33.67;23.53;;;;;;;13.25;54.82;101738.87;3754172;75;99040;-80
2022/03/16 14:43:55;;;;;;;36.93;24.15;;;;;;;13.19;55.53;101733.41;3771396;75;98292;-79
2022/03/16 14:48:57;;;;;;;35.40;24.70;;;;;;;13.25;55.27;101725.83;3762540;78;99203;-80
2022/03/16 14:53:58;;;;;;;37.03;26.15;;;;;;;13.25;55.27;101725.83;3758094;78;99796;-81
2022/03/16 14:58:59;;;;;;;37.70;25.73;;;;;;;13.17;54.79;101726.05;3762940;77;99477;-81
2022/03/16 15:04:01;;;;;;;40.57;26.03;;;;;;;13.17;55.12;101728.24;3777471;76;32952;-81
2022/03/16 15:09:03;;;;;;;40.70;26.40;;;;;;;13.11;54.83;101735.80;3741200;77;99094;-80
2022/03/16 15:14:04;;;;;;;40.60;23.27;;;;;;;13.06;53.52;101741.03;3778233;78;99062;-81
2022/03/16 15:19:06;;;;;;;37.23;24.37;;;;;;;12.98;52.78;101746.17;3766743;78;99088;-79
2022/03/16 15:24:07;;;;;;;40.00;26.63;;;;;;;12.85;53.19;101741.09;3723192;77;99104;-80
2022/03/16 15:29:09;;;;;;;39.87;25.60;;;;;;;12.71;53.07;101744.33;3763999;77;99208;-79
2022/03/16 15:34:10;;;;;;;39.88;27.40;;;;;;;12.60;53.53;101738.36;3749154;78;26247;-79
2022/03/16 15:39:11;;;;;;;42.47;28.07;;;;;;;12.43;53.83;101744.26;3735450;78;99100;-80
2022/03/16 15:44:12;;;;;;;40.70;27.73;;;;;;;12.27;53.25;101744.84;3734784;78;99099;-80
2022/03/16 15:49:13;;;;;;;40.03;27.30;;;;;;;12.07;52.26;101746.71;3771526;78;99185;-80
2022/03/16 15:54:15;;;;;;;38.40;27.30;;;;;;;11.93;52.43;101747.70;3696171;79;99117;-80
2022/03/16 15:59:16;;;;;;;38.27;26.50;;;;;;;11.83;52.31;101755.12;3698437;78;99094;-80
2022/03/16 16:04:17;;;;;;;41.80;28.47;;;;;;;11.74;52.92;101753.68;3715079;79;32878;-81
2022/03/16 16:09:18;;;;;;;39.77;26.93;;;;;;;11.65;53.89;101760.73;3685802;78;99010;-81
2022/03/16 16:14:19;;;;;;;38.80;26.03;;;;;;;11.55;54.23;101769.47;3713136;78;99526;-80
2022/03/16 16:19:20;;;;;;;37.43;25.03;;;;;;;11.48;54.91;101775.36;3703134;77;99250;-81
2022/03/16 16:24:21;;;;;;;37.63;24.80;;;;;;;11.36;55.68;101784.48;3708621;78;99228;-80
2022/03/16 16:34:44;;;;;;;36.30;24.05;;;;;;;11.13;56.67;101791.64;3700155;78;99099;-80
2022/03/16 16:39:45;;;;;;;37.40;23.83;;;;;;;10.95;57.53;101795.03;3697969;79;98825;-81
2022/03/16 16:44:47;;;;;;;44.73;28.03;;;;;;;10.78;58.32;101802.13;3702514;78;99033;-81
2022/03/16 16:49:48;;;;;;;41.13;26.42;;;;;;;10.56;59.15;101802.03;3700747;77;99052;-81
2022/03/16 16:54:49;;;;;;;40.07;26.57;;;;;;;10.41;60.19;101826.09;3753220;77;99122;-81
2022/03/16 16:59:50;;;;;;;38.77;24.80;;;;;;;10.25;60.77;101820.23;3748506;78;99063;-80
2022/03/16 17:04:51;;;;;;;41.80;26.07;;;;;;;10.10;61.49;101820.88;3743955;78;99300;-81
2022/03/16 17:09:52;;;;;;;50.07;29.20;;;;;;;9.95;62.33;101822.30;3747332;77;98687;-81
2022/03/16 17:14:55;;;;;;;50.90;32.90;;;;;;;9.81;63.07;101834.16;3750782;78;98706;-81
2022/03/16 17:19:56;;;;;;;74.80;39.53;;;;;;;9.74;63.87;101832.53;3752571;77;98649;-81
2022/03/16 17:24:57;;;;;;;67.97;38.50;;;;;;;9.66;64.36;101833.39;3789175;75;98875;-83
2022/03/16 17:30:01;;;;;;;55.73;32.87;;;;;;;9.58;64.92;101838.41;3763831;77;98950;-84
2022/03/16 17:35:08;;;;;;;53.23;32.40;;;;;;;9.50;65.46;101841.23;3763331;77;98953;-84
2022/03/16 17:40:09;;;;;;;52.62;31.65;;;;;;;9.44;65.78;101850.81;3764443;78;98403;-84
2022/03/16 17:50:50;;;;;;;54.07;31.40;;;;;;;9.22;66.77;101860.75;3742817;76;98698;-84
2022/03/16 18:01:12;;;;;;;58.93;34.17;;;;;;;8.95;67.99;101862.02;3741659;74;99233;-83
2022/03/16 18:06:14;;;;;;;57.93;36.15;;;;;;;8.86;68.92;101868.70;3742697;77;98808;-84
2022/03/16 18:16:34;;;;;;;52.38;31.10;;;;;;;8.73;70.25;101879.35;3691025;77;98924;-81
2022/03/16 18:21:36;;;;;;;51.70;30.47;;;;;;;8.62;70.77;101881.63;3729371;78;33212;-84
2022/03/16 18:26:37;;;;;;;52.97;31.67;;;;;;;8.53;71.31;101886.92;3677584;78;98895;-84
2022/03/16 18:31:40;;;;;;;55.12;32.65;;;;;;;8.42;71.81;101883.73;3727671;77;99137;-85
2022/03/16 18:36:41;;;;;;;56.37;32.40;;;;;;;8.34;72.04;101885.92;3714510;78;99037;-84
2022/03/16 18:41:45;;;;;;;63.60;34.80;;;;;;;8.30;72.58;101893.19;3670660;77;99153;-84
2022/03/16 18:46:47;;;;;;;59.95;35.13;;;;;;;8.23;72.25;101883.88;3720885;77;99190;-84
2022/03/16 18:57:09;;;;;;;62.93;36.40;;;;;;;8.02;72.61;101899.36;3689096;77;98855;-83
2022/03/16 19:02:12;;;;;;;79.70;42.73;;;;;;;7.96;73.00;101900.07;3739049;77;98657;-84
2022/03/16 19:07:14;;;;;;;82.55;45.78;;;;;;;7.86;73.15;101899.61;3732973;77;98860;-84
2022/03/16 19:17:35;;;;;;;65.92;36.30;;;;;;;7.67;73.82;101905.41;3712036;77;98901;-82
2022/03/16 19:22:36;;;;;;;76.73;40.57;;;;;;;7.51;74.23;101900.70;3709195;77;98780;-83
2022/03/16 19:27:38;;;;;;;79.30;43.10;;;;;;;7.40;74.87;101904.87;3692626;78;98916;-82
2022/03/16 19:32:39;;;;;;;60.20;35.70;;;;;;;7.25;75.45;101904.77;3707567;78;98609;-84
2022/03/16 19:37:40;;;;;;;57.30;32.60;;;;;;;7.10;76.19;101908.53;3727047;78;98732;-85
2022/03/16 19:42:43;;;;;;;64.63;35.50;;;;;;;6.99;77.06;101912.09;3704410;78;98783;-85
2022/03/16 19:47:44;;;;;;;67.45;37.15;;;;;;;6.93;77.68;101910.63;3694536;78;99309;-85
2022/03/16 19:52:46;;;;;;;68.90;36.23;;;;;;;6.86;78.27;101908.10;3671291;79;98813;-85
2022/03/16 19:57:51;;;;;;;68.70;35.50;;;;;;;6.76;79.10;101902.94;3691384;78;98660;-86
2022/03/16 20:02:53;;;;;;;69.30;34.40;;;;;;;6.69;79.55;101910.77;3702191;79;98938;-86
2022/03/16 20:07:54;;;;;;;59.90;31.68;;;;;;;6.59;80.32;101912.41;3768549;77;100253;-84
2022/03/16 20:12:56;;;;;;;68.47;34.23;;;;;;;6.48;80.54;101910.52;3702216;78;99018;-83
2022/03/16 20:17:57;;;;;;;65.42;33.78;;;;;;;6.39;81.33;101904.18;3760528;76;98791;-83
2022/03/16 20:22:58;;;;;;;99.93;45.93;;;;;;;6.34;81.57;101902.16;3708750;78;99267;-84
2022/03/16 20:27:59;;;;;;;102.03;48.80;;;;;;;6.26;81.62;101904.27;3699488;79;98626;-85
2022/03/16 20:33:01;;;;;;;80.17;41.73;;;;;;;6.19;82.21;101910.73;3722102;78;99207;-84
2022/03/16 20:38:02;;;;;;;84.13;43.03;;;;;;;6.08;82.63;101911.56;3700699;77;99079;-85
2022/03/16 20:43:04;;;;;;;86.20;41.93;;;;;;;6.02;83.30;101927.84;3707792;78;99006;-85
2022/03/16 20:48:05;;;;;;;114.73;61.30;;;;;;;5.94;82.95;101923.10;3713923;77;99524;-83
2022/03/16 20:53:06;;;;;;;86.77;45.60;;;;;;;5.85;84.02;101924.94;3740390;77;99122;-83
2022/03/16 21:00:39;;;;;;;69.20;36.07;;;;;;;5.79;84.17;101928.88;3748335;77;98547;-83
2022/03/16 21:03:11;;;;;;;63.83;33.80;;;;;;;5.71;85.02;101935.09;3726938;78;98787;-84
2022/03/16 21:08:13;;;;;;;59.03;33.53;;;;;;;5.62;85.87;101930.09;3745994;77;99075;-85
2022/03/16 21:13:17;;;;;;;54.20;30.77;;;;;;;5.59;86.25;101940.29;3749383;78;98832;-84
2022/03/16 21:18:18;;;;;;;61.42;31.07;;;;;;;5.52;86.29;101949.44;3722926;77;99313;-84
2022/03/16 21:23:20;;;;;;;61.77;31.83;;;;;;;5.45;87.52;101938.13;3697704;78;98923;-84
2022/03/16 21:28:21;;;;;;;60.30;30.95;;;;;;;5.40;87.47;101945.64;3727655;78;98873;-84
2022/03/16 21:33:22;;;;;;;56.20;29.27;;;;;;;5.31;87.96;101949.65;3790711;76;98524;-83
2022/03/16 21:38:25;;;;;;;52.45;27.00;;;;;;;5.29;87.82;101952.43;3781070;77;98841;-83
2022/03/16 21:43:26;;;;;;;56.60;29.10;;;;;;;5.22;88.26;101945.19;3772621;77;98885;-83
2022/03/16 21:48:28;;;;;;;50.93;28.00;;;;;;;5.15;89.37;101947.52;3748567;77;98961;-83
2022/03/16 21:53:29;;;;;;;59.57;31.40;;;;;;;5.08;89.49;101948.48;3760909;77;98837;-83
2022/03/16 21:58:30;;;;;;;57.13;29.87;;;;;;;4.99;90.41;101949.75;3767617;77;98857;-83
2022/03/16 22:03:30;;;;;;;65.47;33.63;;;;;;;4.94;90.62;101959.40;3767395;76;33010;-82
2022/03/16 22:08:31;;;;;;;60.43;30.70;;;;;;;4.90;90.79;101953.47;3767772;76;98723;-83
2022/03/16 22:13:33;;;;;;;62.17;32.07;;;;;;;4.84;90.53;101962.31;3806564;77;98848;-83
2022/03/16 22:18:34;;;;;;;72.50;35.67;;;;;;;4.81;90.46;101971.66;3797861;77;98778;-84
2022/03/16 22:23:35;;;;;;;70.47;35.13;;;;;;;4.76;90.83;101975.27;3784845;77;98840;-82
2022/03/16 22:28:36;;;;;;;64.17;34.70;;;;;;;4.73;90.73;101979.16;3786982;77;98811;-82
2022/03/16 22:33:37;;;;;;;68.67;35.37;;;;;;;4.72;91.03;101985.73;3792236;77;32869;-82
2022/03/16 22:38:38;;;;;;;73.00;35.73;;;;;;;4.69;91.50;101976.23;3768389;77;98715;-82
2022/03/16 22:43:41;;;;;;;72.80;37.90;;;;;;;4.70;91.76;101979.78;3775580;76;98911;-82
2022/03/16 22:48:42;;;;;;;68.93;35.33;;;;;;;4.70;91.64;101975.11;3763970;77;99204;-82
2022/03/16 22:53:44;;;;;;;65.90;35.00;;;;;;;4.71;91.71;101978.13;3754741;77;98882;-81
2022/03/16 22:58:45;;;;;;;72.37;36.87;;;;;;;4.72;91.44;101974.28;3771931;77;98782;-82
2022/03/16 23:03:46;;;;;;;79.70;40.03;;;;;;;4.70;91.32;101971.02;3733701;78;32830;-82
2022/03/16 23:08:47;;;;;;;74.27;37.07;;;;;;;4.67;91.66;101976.27;3725503;77;99333;-82
2022/03/16 23:13:48;;;;;;;74.67;36.30;;;;;;;4.62;91.32;101978.55;3688380;78;99104;-83
2022/03/16 23:18:49;;;;;;;102.10;41.63;;;;;;;4.61;90.88;101984.29;3695863;78;99006;-83
2022/03/16 23:23:50;;;;;;;110.30;48.67;;;;;;;4.55;90.90;101978.13;3726273;79;98945;-82
2022/03/16 23:28:51;;;;;;;96.90;42.93;;;;;;;4.50;90.91;101983.67;3661635;77;99333;-82
2022/03/16 23:33:52;;;;;;;100.42;45.65;;;;;;;4.45;90.78;101987.02;3741894;77;31398;-82
2022/03/16 23:38:54;;;;;;;93.43;42.17;;;;;;;4.37;91.00;101985.78;3726884;77;98889;-82
2022/03/16 23:43:55;;;;;;;93.82;44.45;;;;;;;4.28;91.48;101987.59;3732336;77;98637;-82
2022/03/16 23:48:56;;;;;;;94.30;41.63;;;;;;;4.21;91.66;101978.95;3741812;78;98951;-82
2022/03/16 23:53:57;;;;;;;89.40;41.93;;;;;;;4.14;92.12;101981.26;3739648;77;98721;-82
2022/03/16 23:58:58;;;;;;;87.73;40.07;;;;;;;4.05;92.59;101987.11;3716783;77;98630;-82
